Time;durP1;ratioP1;P1;durP2;ratioP2;P2;SDS_P1;SDS_P2;PMS_P1;PMS_P2;Temp;Humidity;BMP_temperature;BMP_pressure;BME280_temperature;BME280_humidity;BME280_pressure;Samples;Min_cycle;Max_cycle;Signal;HPM_P1;HPM_P2
2022/09/03 00:00:12;;;;;;;20.63;11.98;;;;;;;17.12;45.08;100869.44;4981305;28;20098;-87
2022/09/03 00:02:44;;;;;;;18.52;10.70;;;;;;;17.07;44.93;100871.63;4962265;28;20069;-88
2022/09/03 00:05:19;;;;;;;20.67;10.73;;;;;;;17.02;44.99;100872.00;4979617;28;20058;-88
2022/09/03 00:07:55;;;;;;;18.85;10.88;;;;;;;17.02;45.00;100865.75;4964448;28;20055;-88
2022/09/03 00:10:28;;;;;;;16.75;9.80;;;;;;;17.00;45.09;100865.84;4974395;28;20027;-88
2022/09/03 00:12:59;;;;;;;14.45;8.68;;;;;;;16.90;45.57;100860.34;4975757;28;20105;-89
2022/09/03 00:15:25;;;;;;;13.63;8.60;;;;;;;16.88;45.83;100866.81;4975387;28;20035;-88
2022/09/03 00:18:04;;;;;;;16.13;8.77;;;;;;;16.85;45.38;100859.84;4956963;28;20193;-89
2022/09/03 00:20:39;;;;;;;14.05;7.35;;;;;;;16.83;45.65;100867.16;4975222;28;20027;-87
2022/09/03 00:23:08;;;;;;;12.15;7.03;;;;;;;16.76;45.76;100862.38;4976119;28;20507;-87
2022/09/03 00:25:49;;;;;;;11.73;7.15;;;;;;;16.75;45.45;100866.03;4956720;28;20035;-89
2022/09/03 00:28:19;;;;;;;10.80;6.82;;;;;;;16.71;45.79;100862.69;4970368;28;20069;-88
2022/09/03 00:30:52;;;;;;;13.20;6.82;;;;;;;16.71;46.34;100860.00;4971539;28;20051;-89
2022/09/03 00:33:22;;;;;;;15.02;7.47;;;;;;;16.67;45.80;100854.00;4968630;28;20074;-89
2022/09/03 00:36:10;;;;;;;11.48;6.90;;;;;;;16.68;45.49;100860.25;4963820;28;20034;-89
2022/09/03 00:38:37;;;;;;;10.43;6.72;;;;;;;16.61;46.25;100857.16;4973515;28;20030;-88
2022/09/03 00:41:23;;;;;;;12.35;6.95;;;;;;;16.59;45.70;100869.84;4969678;28;20030;-89
2022/09/03 00:44:25;;;;;;;11.80;7.70;;;;;;;16.57;45.67;100863.75;4973760;28;20054;-88
2022/09/03 00:47:17;;;;;;;13.32;7.13;;;;;;;16.48;46.03;100863.59;4881026;29;20048;-88
2022/09/03 00:49:53;;;;;;;10.55;7.22;;;;;;;16.46;46.53;100861.00;4879298;29;20122;-88
2022/09/03 00:52:31;;;;;;;12.68;7.60;;;;;;;16.46;46.56;100865.50;4888171;29;20048;-89
2022/09/03 00:55:06;;;;;;;16.30;7.50;;;;;;;16.36;46.43;100854.63;4886287;29;20101;-89
2022/09/03 00:57:57;;;;;;;10.90;7.03;;;;;;;16.36;46.17;100855.47;4889669;29;20048;-89
2022/09/03 01:00:23;;;;;;;13.10;7.45;;;;;;;16.36;46.92;100860.84;4880786;29;20131;-88
2022/09/03 01:03:08;;;;;;;11.73;7.30;;;;;;;16.29;46.38;100858.72;4878101;29;20167;-89
2022/09/03 01:06:06;;;;;;;13.43;7.28;;;;;;;16.31;46.53;100863.03;4896902;29;20622;-89
2022/09/03 01:09:02;;;;;;;13.93;7.38;;;;;;;16.23;46.53;100845.75;4880137;29;20750;-88
2022/09/03 01:11:33;;;;;;;15.23;7.72;;;;;;;16.22;47.14;100854.75;4870317;29;20080;-89
2022/09/03 01:14:05;;;;;;;14.95;8.80;;;;;;;16.17;46.92;100855.13;4899344;29;20071;-88
2022/09/03 01:16:51;;;;;;;14.73;8.20;;;;;;;16.22;46.75;100852.09;4893515;29;20058;-88
2022/09/03 01:19:49;;;;;;;17.45;9.35;;;;;;;16.14;46.73;100852.69;4880949;29;20491;-88
2022/09/03 01:22:27;;;;;;;15.32;9.23;;;;;;;16.09;47.27;100852.13;4903695;28;20041;-88
2022/09/03 01:25:16;;;;;;;16.77;9.95;;;;;;;16.06;47.34;100858.59;4970693;28;20117;-88
2022/09/03 01:28:00;;;;;;;17.48;10.70;;;;;;;16.01;47.86;100857.22;4970994;28;20109;-87
2022/09/03 01:30:28;;;;;;;21.77;12.00;;;;;;;16.00;47.52;100852.81;4968435;28;20034;-89
2022/09/03 01:33:14;;;;;;;22.58;12.60;;;;;;;15.97;47.53;100859.28;4970642;28;20031;-87
2022/09/03 01:35:52;;;;;;;20.95;12.52;;;;;;;15.92;47.62;100862.28;4970445;28;20042;-88
2022/09/03 01:38:36;;;;;;;24.38;12.65;;;;;;;15.91;47.52;100863.25;4964121;28;20090;-89
2022/09/03 01:44:15;;;;;;;22.35;13.43;;;;;;;15.81;48.01;100859.53;4967635;28;20263;-86
2022/09/03 01:46:45;;;;;;;23.75;13.98;;;;;;;15.78;47.99;100854.38;4952430;28;20142;-89
2022/09/03 01:49:33;;;;;;;25.35;13.60;;;;;;;15.75;47.92;100859.97;4971898;28;20026;-88
2022/09/03 01:52:11;;;;;;;24.55;13.25;;;;;;;15.75;48.26;100859.97;4961323;28;20527;-88
2022/09/03 01:54:46;;;;;;;31.38;13.15;;;;;;;15.74;48.21;100852.91;4970303;28;20077;-89
2022/09/03 01:57:25;;;;;;;24.02;14.68;;;;;;;15.71;48.42;100863.00;4971004;28;20098;-88
2022/09/03 01:59:58;;;;;;;27.30;14.35;;;;;;;15.67;48.47;100855.19;4967132;28;20049;-89
2022/09/03 02:02:26;;;;;;;25.15;14.57;;;;;;;15.61;48.73;100860.94;4962913;28;20137;-89
2022/09/03 02:05:01;;;;;;;29.30;15.13;;;;;;;15.60;48.60;100858.38;4970775;28;20035;-89
2022/09/03 02:07:35;;;;;;;27.58;15.10;;;;;;;15.55;49.02;100855.13;4975189;28;20049;-89
2022/09/03 02:10:01;;;;;;;;;;;;;;;15.62;47.41;100856.44;4975816;28;20035;-88
2022/09/03 02:12:32;;;;;;;28.45;15.13;;;;;;;15.51;49.09;100859.00;4970209;28;19976;-88
2022/09/03 02:14:58;;;;;;;29.55;15.95;;;;;;;15.45;49.29;100853.13;4980046;28;20034;-89
2022/09/03 02:17:24;;;;;;;30.92;16.77;;;;;;;15.44;49.22;100851.41;4983468;28;20054;-89
2022/09/03 02:19:50;;;;;;;27.80;15.95;;;;;;;15.43;49.22;100844.34;4987579;28;20023;-89
2022/09/03 02:22:16;;;;;;;25.33;14.07;;;;;;;15.40;49.63;100849.91;4987090;28;20030;-88
2022/09/03 02:24:41;;;;;;;31.75;16.23;;;;;;;15.34;49.32;100845.00;4989563;28;20045;-88
2022/09/03 02:27:06;;;;;;;30.38;16.35;;;;;;;15.35;49.47;100845.84;4989473;28;20566;-88
2022/09/03 02:29:32;;;;;;;30.90;16.30;;;;;;;15.30;49.67;100850.66;4979860;28;20384;-89
2022/09/03 02:31:57;;;;;;;28.85;16.50;;;;;;;15.30;49.43;100850.66;4967080;28;20042;-89
2022/09/03 02:34:23;;;;;;;34.33;17.95;;;;;;;15.29;49.87;100859.69;4966043;28;20071;-88
2022/09/03 02:36:48;;;;;;;33.80;18.02;;;;;;;15.27;49.94;100843.72;4968639;28;20599;-89
2022/09/03 02:39:15;;;;;;;35.08;18.83;;;;;;;15.24;49.70;100854.63;4964276;28;20050;-89
2022/09/03 02:41:40;;;;;;;30.92;17.33;;;;;;;15.25;49.96;100853.66;4962169;28;20039;-88
2022/09/03 02:44:18;;;;;;;33.80;18.35;;;;;;;15.25;49.61;100853.66;4962546;28;20035;-88
2022/09/03 02:46:49;;;;;;;38.28;20.40;;;;;;;15.18;49.91;100852.41;4970107;28;20046;-90
2022/09/03 02:49:14;;;;;;;42.03;21.52;;;;;;;15.13;50.16;100841.13;4982739;28;20034;-90
2022/09/03 02:51:42;;;;;;;40.60;21.90;;;;;;;15.10;50.45;100842.22;4969009;28;20039;-89
2022/09/03 02:54:08;;;;;;;39.72;20.75;;;;;;;15.08;50.22;100845.94;4965146;28;20038;-88
2022/09/03 02:56:33;;;;;;;46.67;22.95;;;;;;;15.05;50.31;100846.16;4960775;28;20019;-89
2022/09/03 02:59:00;;;;;;;42.17;22.58;;;;;;;15.05;50.45;100855.09;4948201;28;20031;-88
2022/09/03 03:01:25;;;;;;;45.95;23.48;;;;;;;15.07;50.46;100853.13;4954519;28;20031;-88
2022/09/03 03:03:52;;;;;;;42.55;22.13;;;;;;;15.03;50.44;100856.13;4968541;28;20072;-88
2022/09/03 03:06:19;;;;;;;48.35;23.92;;;;;;;15.01;50.43;100844.69;4970712;28;20042;-88
2022/09/03 03:08:45;;;;;;;44.42;23.83;;;;;;;15.02;50.62;100849.94;4969556;28;20392;-89
2022/09/03 03:11:11;;;;;;;45.20;24.10;;;;;;;14.99;50.61;100844.78;4970679;28;20041;-88
2022/09/03 03:13:36;;;;;;;45.15;24.13;;;;;;;14.94;50.83;100854.97;4968832;28;20023;-88
2022/09/03 03:16:05;;;;;;;47.65;23.73;;;;;;;14.92;50.66;100855.06;4970954;28;20551;-88
2022/09/03 03:18:30;;;;;;;44.47;24.50;;;;;;;14.94;50.69;100858.50;4970791;28;20033;-88
2022/09/03 03:20:56;;;;;;;41.80;23.83;;;;;;;14.89;51.17;100846.38;4967807;28;20060;-88
2022/09/03 03:23:22;;;;;;;49.30;24.67;;;;;;;14.84;51.02;100849.38;4970819;28;20076;-89
2022/09/03 03:25:47;;;;;;;46.55;24.25;;;;;;;14.80;51.24;100847.88;4968526;28;20026;-87
2022/09/03 03:28:13;;;;;;;45.47;23.75;;;;;;;14.79;51.10;100850.63;4969998;28;20027;-88
2022/09/03 03:30:41;;;;;;;46.03;24.35;;;;;;;14.76;51.29;100849.03;4970791;28;20034;-88
2022/09/03 03:33:07;;;;;;;47.33;23.85;;;;;;;14.72;51.39;100844.84;4971012;28;20062;-87
2022/09/03 03:35:33;;;;;;;47.67;24.45;;;;;;;14.69;51.44;100847.72;4971162;28;20023;-88
2022/09/03 03:37:58;;;;;;;42.72;23.48;;;;;;;14.65;51.65;100840.88;4971271;28;20396;-88
2022/09/03 03:40:24;;;;;;;45.33;23.77;;;;;;;14.64;51.64;100847.19;4966443;28;20170;-88
2022/09/03 03:42:49;;;;;;;46.50;23.25;;;;;;;14.63;51.77;100841.00;4965024;28;20051;-88
2022/09/03 03:45:15;;;;;;;50.65;22.77;;;;;;;14.60;51.79;100843.00;4971261;28;20027;-89
2022/09/03 03:47:40;;;;;;;40.63;21.45;;;;;;;14.59;52.04;100839.47;4963774;28;20078;-87
2022/09/03 03:50:06;;;;;;;42.95;22.48;;;;;;;14.53;52.00;100837.19;4973310;28;20037;-88
2022/09/03 03:52:31;;;;;;;38.05;21.30;;;;;;;14.57;52.05;100846.75;4971454;28;20192;-89
2022/09/03 03:54:57;;;;;;;39.63;21.00;;;;;;;14.59;51.81;100847.50;4971912;28;20077;-89
2022/09/03 03:57:22;;;;;;;41.33;21.33;;;;;;;14.58;52.04;100839.56;4985223;28;20046;-89
2022/09/03 03:59:48;;;;;;;37.88;19.88;;;;;;;14.60;52.02;100843.00;4986467;28;20031;-88
2022/09/03 04:02:15;;;;;;;35.10;20.00;;;;;;;14.61;51.96;100836.69;4977411;28;20031;-88
2022/09/03 04:04:40;;;;;;;39.22;19.88;;;;;;;14.59;52.00;100843.94;4970746;28;20090;-89
2022/09/03 04:07:07;;;;;;;36.13;19.85;;;;;;;14.59;51.78;100836.78;4975031;28;20062;-90
2022/09/03 04:09:33;;;;;;;37.05;19.90;;;;;;;14.61;52.32;100836.69;4970813;28;20023;-89
2022/09/03 04:11:58;;;;;;;37.22;19.20;;;;;;;14.57;51.89;100838.69;4978031;28;20038;-88
2022/09/03 04:14:24;;;;;;;38.58;20.42;;;;;;;14.55;52.21;100837.13;4985550;28;20062;-90
2022/09/03 04:16:50;;;;;;;34.88;19.35;;;;;;;14.61;52.15;100850.06;4970034;28;20015;-89
2022/09/03 04:19:16;;;;;;;36.60;19.92;;;;;;;14.61;52.36;100850.06;4987271;28;20085;-89
2022/09/03 04:21:42;;;;;;;37.90;20.45;;;;;;;14.60;52.31;100845.69;4982953;28;20027;-89
2022/09/03 04:24:08;;;;;;;39.70;20.40;;;;;;;14.60;52.32;100838.50;4971568;28;20062;-88
2022/09/03 04:26:33;;;;;;;37.17;20.33;;;;;;;14.58;52.27;100843.09;4990312;28;20074;-89
2022/09/03 04:29:01;;;;;;;40.67;21.38;;;;;;;14.58;52.12;100842.25;4991567;28;20070;-89
2022/09/03 04:31:26;;;;;;;33.72;19.83;;;;;;;14.55;52.44;100832.59;4970405;28;20081;-87
2022/09/03 04:33:51;;;;;;;38.47;19.80;;;;;;;14.52;52.40;100835.50;4973184;28;20042;-89
2022/09/03 04:36:19;;;;;;;36.53;20.33;;;;;;;14.50;52.38;100834.72;4971404;28;20062;-89
2022/09/03 04:38:48;;;;;;;33.17;18.92;;;;;;;14.51;52.30;100841.81;4974599;28;20111;-89
2022/09/03 04:41:16;;;;;;;37.90;19.05;;;;;;;14.47;52.39;100842.94;4968892;28;20022;-89
2022/09/03 04:43:42;;;;;;;35.13;19.15;;;;;;;14.46;52.61;100846.56;4970289;28;20050;-89
2022/09/03 04:46:09;;;;;;;34.03;18.27;;;;;;;14.50;52.65;100844.56;4971933;28;20085;-89
2022/09/03 04:48:36;;;;;;;35.55;18.60;;;;;;;14.49;52.50;100840.19;4988149;28;20507;-89
2022/09/03 04:51:06;;;;;;;29.92;18.20;;;;;;;14.41;52.80;100841.50;4972388;28;20473;-88
2022/09/03 04:53:33;;;;;;;34.22;18.05;;;;;;;14.45;52.50;100840.34;4987367;28;20050;-89
2022/09/03 04:55:58;;;;;;;32.85;17.42;;;;;;;14.42;52.78;100837.91;4974098;28;20023;-90
2022/09/03 04:58:24;;;;;;;33.95;18.85;;;;;;;14.41;52.90;100837.97;4972874;28;20086;-90
2022/09/03 05:00:49;;;;;;;31.60;18.33;;;;;;;14.38;52.99;100838.19;4970945;28;20042;-89
2022/09/03 05:03:14;;;;;;;29.25;16.30;;;;;;;14.35;53.04;100835.72;4972815;28;20066;-89
2022/09/03 05:05:40;;;;;;;36.80;17.42;;;;;;;14.34;53.21;100837.56;4987009;28;20059;-91
2022/09/03 05:08:06;;;;;;;31.42;18.42;;;;;;;14.34;53.21;100842.91;4974319;28;20042;-89
2022/09/03 05:10:31;;;;;;;36.88;20.08;;;;;;;14.33;53.43;100843.84;4971419;28;20098;-89
2022/09/03 05:13:01;;;;;;;34.63;19.15;;;;;;;14.35;53.26;100846.44;4969246;28;20034;-90
2022/09/03 05:15:28;;;;;;;36.15;19.25;;;;;;;14.36;53.21;100850.81;4971448;28;20027;-90
2022/09/03 05:18:03;;;;;;;34.88;18.38;;;;;;;14.38;53.06;100855.13;4968633;28;20019;-88
2022/09/03 05:20:29;;;;;;;33.33;19.95;;;;;;;14.39;53.24;100845.28;4969337;28;20070;-90
2022/09/03 05:22:56;;;;;;;37.10;19.80;;;;;;;14.42;53.35;100832.53;4970842;28;20054;-89
2022/09/03 05:25:22;;;;;;;35.63;18.33;;;;;;;14.44;53.36;100841.31;4970579;28;20030;-90
2022/09/03 05:27:47;;;;;;;33.17;18.92;;;;;;;14.45;53.20;100840.34;4970833;28;20019;-89
2022/09/03 05:30:13;;;;;;;33.75;18.58;;;;;;;14.50;53.24;100841.91;4971206;28;20643;-91
2022/09/03 05:32:39;;;;;;;32.97;17.83;;;;;;;14.55;52.84;100837.97;4971697;28;20130;-90
2022/09/03 05:35:05;;;;;;;37.80;18.17;;;;;;;14.63;52.95;100841.00;4968140;28;20038;-90
2022/09/03 05:37:30;;;;;;;34.78;17.83;;;;;;;14.64;53.24;100840.00;4961084;28;20075;-90
2022/09/03 05:39:55;;;;;;;33.70;16.60;;;;;;;14.71;52.88;100840.44;4971756;28;20019;-90
2022/09/03 05:42:21;;;;;;;35.95;17.13;;;;;;;14.76;52.55;100832.97;4976958;28;20053;-89
2022/09/03 05:44:48;;;;;;;30.00;16.05;;;;;;;14.84;52.46;100841.34;4973657;28;20109;-89
2022/09/03 05:47:13;;;;;;;33.30;16.55;;;;;;;14.94;52.24;100842.41;4974760;28;20023;-88
2022/09/03 05:49:38;;;;;;;28.67;15.55;;;;;;;15.04;52.38;100841.75;4989651;28;20147;-89
2022/09/03 05:52:04;;;;;;;27.58;15.23;;;;;;;15.06;51.89;100839.84;4990593;28;20062;-89
2022/09/03 05:54:29;;;;;;;27.33;14.80;;;;;;;15.14;51.64;100843.72;4990515;28;20027;-89
2022/09/03 05:56:54;;;;;;;27.75;14.18;;;;;;;15.25;51.50;100845.63;4991467;28;20102;-90
2022/09/03 05:59:20;;;;;;;30.27;14.68;;;;;;;15.35;51.60;100851.22;4987800;28;20038;-89
2022/09/03 06:01:45;;;;;;;27.08;14.73;;;;;;;15.41;50.97;100843.56;4980102;28;20039;-88
2022/09/03 06:04:15;;;;;;;27.52;13.60;;;;;;;15.50;51.21;100849.25;4973723;28;20112;-89
2022/09/03 06:06:43;;;;;;;28.33;14.00;;;;;;;15.65;51.09;100842.84;4973619;28;20065;-89
2022/09/03 06:09:12;;;;;;;25.05;12.32;;;;;;;15.75;50.17;100837.66;4974697;28;20027;-88
2022/09/03 06:11:39;;;;;;;20.80;12.23;;;;;;;15.84;50.49;100850.38;4970922;28;20035;-89
2022/09/03 06:14:07;;;;;;;20.45;11.38;;;;;;;15.94;50.11;100841.56;4968351;28;20030;-89
2022/09/03 06:16:34;;;;;;;18.65;11.23;;;;;;;16.00;50.29;100842.94;4968810;28;20046;-88
2022/09/03 06:19:00;;;;;;;21.13;10.82;;;;;;;16.12;50.09;100835.81;4973091;28;20558;-88
2022/09/03 06:21:26;;;;;;;19.55;9.93;;;;;;;16.22;49.35;100846.72;4973184;28;20121;-89
2022/09/03 06:23:55;;;;;;;15.70;9.48;;;;;;;16.33;49.54;100846.78;4971005;28;20030;-88
2022/09/03 06:26:21;;;;;;;14.45;8.65;;;;;;;16.49;49.31;100839.28;4970644;28;20544;-89
2022/09/03 06:28:47;;;;;;;16.63;8.45;;;;;;;16.80;48.76;100842.34;4970003;28;20038;-90
2022/09/03 06:31:15;;;;;;;15.48;7.75;;;;;;;17.03;47.96;100849.50;4972400;28;20034;-88
2022/09/03 06:33:42;;;;;;;14.07;7.15;;;;;;;17.39;47.00;100847.59;4966551;28;20061;-89
2022/09/03 06:36:11;;;;;;;11.52;6.40;;;;;;;17.77;46.87;100847.25;4971279;28;20055;-88
2022/09/03 06:38:37;;;;;;;7.47;5.18;;;;;;;18.09;45.62;100838.34;4968742;28;20031;-89
2022/09/03 06:41:23;;;;;;;8.48;4.57;;;;;;;18.30;45.38;100847.34;4968192;28;20081;-89
2022/09/03 06:43:54;;;;;;;7.53;4.15;;;;;;;18.45;44.73;100855.16;4967140;28;20425;-89
2022/09/03 06:46:22;;;;;;;8.88;4.15;;;;;;;18.42;44.97;100845.47;4970070;28;20388;-88
2022/09/03 06:48:49;;;;;;;3.90;2.70;;;;;;;18.33;44.73;100846.25;4970146;28;20047;-83
2022/09/03 06:51:17;;;;;;;5.32;2.22;;;;;;;18.28;44.73;100854.72;4969379;28;20089;-88
2022/09/03 06:53:45;;;;;;;6.68;2.47;;;;;;;18.25;44.98;100854.09;4970803;28;20030;-89
2022/09/03 06:56:13;;;;;;;5.60;2.15;;;;;;;18.35;44.74;100850.53;4971224;28;20119;-90
2022/09/03 06:58:47;;;;;;;3.83;2.20;;;;;;;18.53;44.34;100844.56;4971487;28;20424;-89
2022/09/03 07:01:14;;;;;;;;;;;;;;;18.78;44.33;100844.25;4974951;28;20027;-88
2022/09/03 07:03:41;;;;;;;3.10;1.75;;;;;;;19.09;42.77;100845.13;4973321;28;19957;-91
2022/09/03 07:06:09;;;;;;;3.92;2.03;;;;;;;19.37;42.46;100846.28;4971158;28;20038;-88
2022/09/03 07:08:35;;;;;;;3.97;2.20;;;;;;;19.52;41.87;100845.91;4971186;28;20037;-88
2022/09/03 07:11:07;;;;;;;2.00;1.75;;;;;;;19.80;41.63;100852.47;4967830;28;20035;-88
2022/09/03 07:13:38;;;;;;;6.22;1.70;;;;;;;20.25;41.45;100846.59;4967161;28;20083;-88
2022/09/03 07:16:06;;;;;;;3.65;1.70;;;;;;;20.69;39.96;100849.75;4970699;28;20407;-89
2022/09/03 07:18:32;;;;;;;3.88;1.90;;;;;;;21.02;39.46;100845.72;4968641;28;20061;-89
2022/09/03 07:21:01;;;;;;;5.32;1.65;;;;;;;21.47;39.13;100842.38;4969356;28;20209;-90
2022/09/03 07:23:29;;;;;;;5.05;1.88;;;;;;;21.99;38.06;100848.09;4971304;28;20500;-90
2022/09/03 07:26:08;;;;;;;4.70;2.03;;;;;;;22.45;37.24;100849.81;4969872;28;20083;-90
2022/09/03 07:28:36;;;;;;;3.92;1.83;;;;;;;22.69;36.56;100849.16;4971173;28;20117;-88
2022/09/03 07:31:07;;;;;;;5.20;2.03;;;;;;;23.01;35.98;100840.47;4950495;28;20038;-89
2022/09/03 07:33:33;;;;;;;4.25;1.88;;;;;;;23.09;35.45;100851.38;4969857;28;20034;-90
2022/09/03 07:36:08;;;;;;;2.40;1.85;;;;;;;23.25;36.00;100847.94;4952500;28;20062;-88
2022/09/03 07:38:34;;;;;;;4.70;1.70;;;;;;;23.52;34.68;100854.19;4968330;28;20161;-91
2022/09/03 07:41:02;;;;;;;2.80;1.80;;;;;;;23.43;34.72;100856.00;4969455;28;20058;-88
2022/09/03 07:43:32;;;;;;;3.08;1.50;;;;;;;23.35;34.80;100854.09;4972282;28;20121;-90
2022/09/03 07:45:58;;;;;;;3.40;1.52;;;;;;;23.59;34.49;100858.81;4970505;28;20436;-90
2022/09/03 07:48:23;;;;;;;2.42;1.60;;;;;;;23.98;34.11;100854.75;4967507;28;20035;-89
2022/09/03 07:50:48;;;;;;;5.75;1.60;;;;;;;24.19;33.32;100860.59;4970954;28;20014;-92
2022/09/03 07:53:18;;;;;;;3.60;1.60;;;;;;;24.31;32.84;100859.25;4973672;28;20022;-90
2022/09/03 07:55:43;;;;;;;3.97;1.50;;;;;;;24.45;32.57;100852.34;4972344;28;20027;-91
2022/09/03 07:58:13;;;;;;;4.03;1.45;;;;;;;24.75;31.90;100859.00;4974382;28;20041;-91
2022/09/03 08:00:39;;;;;;;6.30;1.80;;;;;;;25.13;31.63;100862.09;4975612;28;20038;-89
2022/09/03 08:03:07;;;;;;;5.20;1.73;;;;;;;25.20;31.88;100860.34;4970865;28;20105;-90
2022/09/03 08:05:35;;;;;;;3.53;1.85;;;;;;;25.23;31.75;100862.72;4966102;28;20117;-89
2022/09/03 08:08:03;;;;;;;3.45;1.20;;;;;;;25.26;31.25;100861.56;4980270;28;20106;-92
2022/09/03 08:10:29;;;;;;;3.50;1.30;;;;;;;25.51;31.58;100867.78;4976261;28;20178;-90
2022/09/03 08:12:56;;;;;;;5.05;1.45;;;;;;;25.79;30.93;100862.75;4966500;28;20460;-91
2022/09/03 08:15:22;;;;;;;5.00;1.63;;;;;;;26.41;30.98;100860.03;4976332;28;20026;-90
2022/09/03 08:17:48;;;;;;;2.33;1.48;;;;;;;26.50;29.98;100859.00;4977121;28;20530;-91
2022/09/03 08:20:13;;;;;;;3.22;1.60;;;;;;;26.96;29.11;100877.22;4976413;28;20031;-92
2022/09/03 08:22:39;;;;;;;7.63;1.73;;;;;;;27.42;28.64;100869.81;4974442;28;20070;-90
2022/09/03 08:25:04;;;;;;;5.63;1.98;;;;;;;28.07;28.38;100873.66;4974927;28;20113;-91
2022/09/03 08:27:30;;;;;;;2.15;1.38;;;;;;;28.55;27.39;100884.97;4954160;28;20106;-92
2022/09/03 08:29:56;;;;;;;4.05;1.55;;;;;;;28.83;26.60;100876.81;4969741;28;20418;-89
2022/09/03 08:32:21;;;;;;;4.68;1.42;;;;;;;29.11;27.50;100881.53;4971699;28;20536;-89
2022/09/03 08:34:47;;;;;;;6.22;2.00;;;;;;;29.66;26.59;100882.56;4958152;28;20054;-89
2022/09/03 08:37:12;;;;;;;4.78;1.70;;;;;;;30.22;25.63;100880.56;4971275;28;20493;-90
2022/09/03 08:39:38;;;;;;;7.45;2.05;;;;;;;30.39;24.72;100885.63;4967052;28;20046;-88
2022/09/03 08:42:24;;;;;;;3.25;1.60;;;;;;;30.52;25.23;100889.28;4965754;28;20089;-89
2022/09/03 08:44:53;;;;;;;6.75;1.60;;;;;;;30.63;24.67;100887.81;4966921;28;20039;-90
2022/09/03 08:47:30;;;;;;;5.30;1.75;;;;;;;30.85;25.38;100887.66;4974698;28;20037;-93
2022/09/03 08:50:26;;;;;;;4.32;1.70;;;;;;;31.59;24.78;100887.44;4962060;28;20058;-90
2022/09/03 08:53:08;;;;;;;2.97;1.45;;;;;;;32.13;23.19;100888.13;4974458;28;20062;-92
2022/09/03 08:55:43;;;;;;;3.80;1.58;;;;;;;32.29;22.49;100887.63;4974091;28;20038;-89
2022/09/03 08:58:15;;;;;;;3.97;1.80;;;;;;;32.06;22.60;100879.88;4959828;28;20035;-88
2022/09/03 09:01:02;;;;;;;2.45;1.60;;;;;;;31.86;23.40;100885.50;4972977;28;20134;-89
2022/09/03 09:04:05;;;;;;;2.75;1.77;;;;;;;32.41;23.11;100885.91;4971799;28;20034;-88
2022/09/03 09:07:03;;;;;;;5.40;1.75;;;;;;;32.88;22.39;100888.34;4954709;28;20121;-88
2022/09/03 09:10:14;;;;;;;3.17;1.45;;;;;;;33.31;22.36;100877.38;4976783;28;20073;-86
2022/09/03 09:13:07;;;;;;;7.78;4.35;;;;;;;33.81;21.40;100880.03;4920253;28;20557;-88
2022/09/03 09:15:38;;;;;;;7.20;1.70;;;;;;;34.14;20.38;100887.13;4973271;28;20034;-91
2022/09/03 09:18:04;;;;;;;3.53;1.67;;;;;;;34.00;20.29;100889.22;4980583;28;20046;-91
2022/09/03 09:20:47;;;;;;;7.38;1.85;;;;;;;34.64;20.75;100887.69;4974212;28;20051;-92
2022/09/03 09:23:34;;;;;;;4.00;1.80;;;;;;;35.02;19.44;100883.72;4982576;28;20383;-91
2022/09/03 09:26:05;;;;;;;4.20;1.40;;;;;;;35.22;19.36;100882.53;4980711;28;20042;-90
2022/09/03 09:28:36;;;;;;;4.07;1.90;;;;;;;35.31;19.15;100889.41;4992756;28;20031;-88
2022/09/03 09:31:06;;;;;;;3.72;1.50;;;;;;;35.57;18.82;100886.16;4990609;28;20042;-94
2022/09/03 09:33:32;;;;;;;2.13;1.52;;;;;;;36.10;18.94;100878.72;4975638;28;20073;-89
2022/09/03 09:36:01;;;;;;;3.15;1.90;;;;;;;36.10;18.09;100887.88;4986086;28;20039;-92
2022/09/03 09:38:35;;;;;;;5.25;1.73;;;;;;;36.51;18.57;100876.78;4984333;28;20042;-92
2022/09/03 09:41:07;;;;;;;3.90;2.00;;;;;;;37.04;18.32;100884.69;4968005;28;20037;-88
2022/09/03 09:43:33;;;;;;;2.85;1.80;;;;;;;36.80;17.39;100888.69;4971628;28;20580;-88
2022/09/03 09:46:07;;;;;;;2.60;1.40;;;;;;;36.87;17.72;100883.78;4973408;28;20039;-90
2022/09/03 09:48:38;;;;;;;3.95;1.98;;;;;;;37.10;17.39;100889.22;4972053;28;20066;-89
2022/09/03 09:51:20;;;;;;;2.10;1.40;;;;;;;37.42;18.02;100885.84;4971051;28;20556;-88
2022/09/03 09:53:46;;;;;;;2.85;1.73;;;;;;;37.64;16.93;100889.50;4974432;28;20034;-90
2022/09/03 09:56:23;;;;;;;3.92;1.73;;;;;;;38.33;16.84;100890.94;4955626;28;20146;-89
2022/09/03 09:58:48;;;;;;;16.45;2.53;;;;;;;38.34;16.14;100887.91;4973966;28;20093;-88
2022/09/03 10:01:21;;;;;;;2.88;1.90;;;;;;;38.41;16.62;100882.13;4973864;28;20034;-90
2022/09/03 10:03:55;;;;;;;5.22;1.70;;;;;;;38.26;16.41;100890.31;4955931;28;20077;-92
2022/09/03 10:09:18;;;;;;;3.63;1.90;;;;;;;38.04;16.00;100890.31;4970813;28;20081;-92
2022/09/03 10:11:50;;;;;;;4.63;1.90;;;;;;;38.44;16.40;100892.75;4972254;28;20480;-91
2022/09/03 10:14:50;;;;;;;3.58;2.53;;;;;;;39.53;16.49;100882.28;4969377;28;20031;-92
2022/09/03 10:17:20;;;;;;;3.25;1.80;;;;;;;40.16;15.20;100876.75;4973609;28;20145;-89
2022/09/03 10:20:26;;;;;;;6.50;2.03;;;;;;;40.38;14.63;100876.50;4970333;28;20023;-91
2022/09/03 10:22:46;;;;;;;4.75;1.90;;;;;;;40.81;13.84;100886.38;4974761;28;20061;-90
2022/09/03 10:25:15;;;;;;;5.63;2.35;;;;;;;40.96;14.05;100869.63;4956634;28;20477;-92
2022/09/03 10:27:42;;;;;;;3.50;2.10;;;;;;;41.28;14.08;100874.09;4971961;28;20023;-91
2022/09/03 10:30:08;;;;;;;3.53;1.70;;;;;;;41.65;13.83;100872.91;4963744;28;20031;-90
2022/09/03 10:33:14;;;;;;;3.33;2.00;;;;;;;42.52;13.30;100871.38;4970007;28;20027;-92
2022/09/03 10:35:45;;;;;;;3.97;1.70;;;;;;;41.76;13.85;100872.59;4945664;29;20051;-90
2022/09/03 10:38:22;;;;;;;3.65;1.67;;;;;;;42.10;13.33;100865.44;4966869;28;20491;-88
2022/09/03 10:41:25;;;;;;;4.40;1.90;;;;;;;42.86;14.17;100869.72;4972895;28;20034;-90
2022/09/03 10:44:07;;;;;;;2.95;1.70;;;;;;;42.48;12.75;100873.06;4972383;28;20074;-86
2022/09/03 10:46:46;;;;;;;3.45;1.77;;;;;;;41.52;14.01;100877.97;4971796;28;20029;-89
2022/09/03 10:49:30;;;;;;;2.58;1.60;;;;;;;42.21;13.62;100872.66;4973218;28;20035;-88
2022/09/03 10:52:24;;;;;;;3.55;1.63;;;;;;;42.65;13.81;100877.47;4961533;28;20235;-90
2022/09/03 10:55:14;;;;;;;5.65;1.70;;;;;;;42.64;13.89;100878.56;4974571;28;20039;-90
2022/09/03 10:58:24;;;;;;;2.90;1.50;;;;;;;43.35;13.88;100883.53;4970226;28;21272;-91
2022/09/03 11:01:02;;;;;;;3.40;1.85;;;;;;;43.53;12.70;100873.59;4969295;28;20042;-86
2022/09/03 11:03:38;;;;;;;3.78;2.05;;;;;;;44.04;12.93;100870.16;4970698;28;20031;-86
2022/09/03 11:06:08;;;;;;;2.42;1.80;;;;;;;44.17;11.85;100869.41;4972796;28;20116;-88
2022/09/03 11:08:41;;;;;;;2.75;1.48;;;;;;;44.22;11.88;100869.31;4968625;28;20460;-90
2022/09/03 11:11:42;;;;;;;3.15;1.80;;;;;;;44.23;12.06;100871.00;4971543;28;20586;-92
2022/09/03 11:14:21;;;;;;;3.85;1.58;;;;;;;44.10;12.29;100865.28;4972540;28;20051;-89
2022/09/03 11:16:59;;;;;;;5.07;1.65;;;;;;;43.94;12.73;100857.13;4973654;28;20122;-90
2022/09/03 11:19:42;;;;;;;5.10;1.60;;;;;;;44.27;12.68;100874.06;4972241;28;20500;-93
2022/09/03 11:22:09;;;;;;;7.85;2.00;;;;;;;43.94;12.05;100868.34;4966404;28;20027;-89
2022/09/03 11:24:39;;;;;;;2.70;1.60;;;;;;;43.59;11.67;100857.53;4968331;28;20081;-86
2022/09/03 11:27:47;;;;;;;1.83;1.48;;;;;;;43.32;12.57;100861.75;4955134;28;20019;-88
2022/09/03 11:30:21;;;;;;;4.70;2.50;;;;;;;43.59;12.63;100874.34;4938320;28;20098;-88
2022/09/03 11:32:59;;;;;;;6.25;1.70;;;;;;;43.79;12.32;100862.88;4970936;28;20038;-87
2022/09/03 11:35:28;;;;;;;3.10;1.75;;;;;;;43.53;12.50;100856.78;4970640;28;20051;-87
2022/09/03 11:37:59;;;;;;;3.80;1.77;;;;;;;43.63;11.85;100858.59;4970201;28;20023;-88
2022/09/03 11:40:40;;;;;;;3.63;1.70;;;;;;;43.80;12.05;100856.13;4969336;28;20108;-89
2022/09/03 11:43:28;;;;;;;2.63;1.63;;;;;;;44.17;11.99;100854.53;4979131;28;20443;-87